createdAt,value
2019-04-10T00:01:31.995Z,97.90
2019-04-10T00:04:02.897Z,98.50
2019-04-10T00:06:34.063Z,98.80
2019-04-10T00:09:06.437Z,99.00
2019-04-10T00:11:37.159Z,99.70
2019-04-10T00:14:08.263Z,99.90
2019-04-10T00:16:40.394Z,99.90
2019-04-10T00:19:10.770Z,99.90
2019-04-10T00:21:41.800Z,99.90
2019-04-10T00:24:12.313Z,99.90
2019-04-10T00:26:42.810Z,99.90
2019-04-10T00:29:14.096Z,99.90
2019-04-10T00:31:44.557Z,99.90
2019-04-10T00:34:15.630Z,99.90
2019-04-10T00:36:46.045Z,99.90
2019-04-10T00:39:16.396Z,99.90
2019-04-10T00:41:46.711Z,99.90
2019-04-10T00:44:17.078Z,99.90
2019-04-10T00:46:48.599Z,99.90
2019-04-10T00:49:19.754Z,99.90
2019-04-10T00:51:50.133Z,99.90
2019-04-10T00:54:21.632Z,99.90
2019-04-10T00:56:52.762Z,99.90
2019-04-10T00:59:24.050Z,99.90
2019-04-10T01:01:54.772Z,99.90
2019-04-10T01:04:25.067Z,99.90
2019-04-10T01:06:56.601Z,99.90
2019-04-10T01:09:27.453Z,99.90
2019-04-10T01:11:57.843Z,99.90
2019-04-10T01:14:28.212Z,99.90
2019-04-10T01:16:58.532Z,99.90
2019-04-10T01:19:28.833Z,99.90
2019-04-10T01:21:59.713Z,99.90
2019-04-10T01:24:30.108Z,99.90
2019-04-10T01:27:01.316Z,99.90
2019-04-10T01:29:31.892Z,99.90
2019-04-10T01:32:02.214Z,99.90
2019-04-10T01:34:33.625Z,99.90
2019-04-10T01:37:04.744Z,99.90
2019-04-10T01:39:35.157Z,99.90
2019-04-10T01:42:06.153Z,99.90
2019-04-10T01:44:36.716Z,99.90
2019-04-10T01:47:07.020Z,99.90
2019-04-10T01:49:37.904Z,99.90
2019-04-10T01:52:08.923Z,99.90
2019-04-10T01:54:39.602Z,99.90
2019-04-10T01:57:10.306Z,99.90
2019-04-10T01:59:42.462Z,99.90
2019-04-10T02:02:37.539Z,99.90
2019-04-10T02:05:08.666Z,99.90
2019-04-10T02:07:38.981Z,99.90
2019-04-10T02:10:10.039Z,99.90
2019-04-10T02:12:40.987Z,99.90
2019-04-10T02:15:14.505Z,99.90
2019-04-10T02:17:44.957Z,99.90
2019-04-10T02:20:16.201Z,99.90
2019-04-10T02:22:46.526Z,99.90
2019-04-10T02:25:37.622Z,99.90
2019-04-10T02:28:08.986Z,99.90
2019-04-10T02:30:41.900Z,99.90
2019-04-10T02:33:13.938Z,99.90
2019-04-10T02:35:45.412Z,99.90
2019-04-10T02:38:30.577Z,99.90
2019-04-10T02:40:50.103Z,99.90
2019-04-10T02:43:21.172Z,99.90
2019-04-10T02:45:52.151Z,99.90
2019-04-10T02:48:23.437Z,99.90
2019-04-10T02:50:55.477Z,99.90
2019-04-10T02:53:27.525Z,99.90
2019-04-10T02:56:00.336Z,99.90
2019-04-10T02:58:32.259Z,99.90
2019-04-10T03:01:03.249Z,99.90
2019-04-10T03:03:34.358Z,99.90
2019-04-10T03:06:07.214Z,99.90
2019-04-10T03:08:57.784Z,99.90
2019-04-10T03:11:12.177Z,99.90
2019-04-10T03:13:43.086Z,99.90
2019-04-10T03:16:14.119Z,99.90
2019-04-10T03:18:45.207Z,99.90
2019-04-10T03:21:16.442Z,99.90
2019-04-10T03:23:47.547Z,99.90
2019-04-10T03:26:18.477Z,99.90
2019-04-10T03:28:49.365Z,99.90
2019-04-10T03:31:22.411Z,99.90
2019-04-10T03:34:08.138Z,99.90
2019-04-10T03:36:38.498Z,99.90
2019-04-10T03:39:10.889Z,99.90
2019-04-10T03:41:42.180Z,99.90
2019-04-10T03:44:14.436Z,99.90
2019-04-10T03:46:45.050Z,99.90
2019-04-10T03:49:15.804Z,99.90
2019-04-10T03:51:47.079Z,99.90
2019-04-10T03:54:18.689Z,99.90
2019-04-10T03:56:49.979Z,99.90
2019-04-10T03:59:20.617Z,99.90
2019-04-10T04:01:53.413Z,99.90
2019-04-10T04:04:24.189Z,99.90
2019-04-10T04:06:55.772Z,99.90
2019-04-10T04:09:27.235Z,99.90
2019-04-10T04:11:57.961Z,99.90
2019-04-10T04:14:28.634Z,99.90
2019-04-10T04:17:02.512Z,99.90
2019-04-10T04:19:33.207Z,99.90
2019-04-10T04:22:04.011Z,99.90
2019-04-10T04:24:35.746Z,99.90
2019-04-10T04:27:06.312Z,99.90
2019-04-10T04:29:36.989Z,99.90
2019-04-10T04:32:07.601Z,99.90
2019-04-10T04:34:38.867Z,99.90
2019-04-10T04:37:09.984Z,99.90
2019-04-10T04:39:40.488Z,99.90
2019-04-10T04:42:10.965Z,99.90
2019-04-10T04:44:41.572Z,99.90
2019-04-10T04:47:13.305Z,99.90
2019-04-10T04:49:44.451Z,99.90
2019-04-10T04:52:16.170Z,99.90
2019-04-10T04:54:47.742Z,99.90
2019-04-10T04:57:18.863Z,99.90
2019-04-10T04:59:50.443Z,99.90
2019-04-10T05:02:21.943Z,99.90
2019-04-10T05:04:53.523Z,99.90
2019-04-10T05:07:24.698Z,99.90
2019-04-10T05:09:55.839Z,99.90
2019-04-10T05:12:27.691Z,99.90
2019-04-10T05:14:58.527Z,99.90
2019-04-10T05:17:29.116Z,99.90
2019-04-10T05:20:00.642Z,99.90
2019-04-10T05:22:31.972Z,99.90
2019-04-10T05:25:03.064Z,99.90
2019-04-10T05:27:35.035Z,99.90
2019-04-10T05:30:08.507Z,99.90
2019-04-10T05:32:39.692Z,99.90
2019-04-10T05:35:11.589Z,99.90
2019-04-10T05:37:43.477Z,99.90
2019-04-10T05:40:15.204Z,99.90
2019-04-10T05:42:47.080Z,99.90
2019-04-10T05:45:18.028Z,99.90
2019-04-10T05:47:48.844Z,99.90
2019-04-10T05:50:19.675Z,99.90
2019-04-10T05:52:50.320Z,99.90
2019-04-10T05:55:21.025Z,99.90
2019-04-10T05:57:51.659Z,99.90
2019-04-10T06:00:23.285Z,99.90
2019-04-10T06:02:54.259Z,99.90
2019-04-10T06:05:24.813Z,99.90
2019-04-10T06:07:55.430Z,99.90
2019-04-10T06:10:26.746Z,99.90
2019-04-10T06:12:58.418Z,99.90
2019-04-10T06:15:29.236Z,99.90
2019-04-10T06:18:00.053Z,99.90
2019-04-10T06:20:31.403Z,99.90
2019-04-10T06:23:03.225Z,99.90
2019-04-10T06:25:36.015Z,99.90
2019-04-10T06:28:07.271Z,99.90
2019-04-10T06:30:38.112Z,99.90
2019-04-10T06:33:09.603Z,99.90
2019-04-10T06:35:40.264Z,99.90
2019-04-10T06:38:10.858Z,99.90
2019-04-10T06:40:41.979Z,99.90
2019-04-10T06:43:12.833Z,99.90
2019-04-10T06:45:44.025Z,99.90
2019-04-10T06:48:15.057Z,99.90
2019-04-10T06:50:45.997Z,99.90
2019-04-10T06:53:18.574Z,99.90
2019-04-10T06:55:49.127Z,99.90
2019-04-10T06:58:20.073Z,99.90
2019-04-10T07:00:53.256Z,99.90
2019-04-10T07:03:23.211Z,99.90
2019-04-10T07:06:06.896Z,99.90
2019-04-10T07:08:27.504Z,99.90
2019-04-10T07:11:04.395Z,99.90
2019-04-10T07:13:30.232Z,99.90
2019-04-10T07:16:00.701Z,99.90
2019-04-10T07:18:31.199Z,99.90
2019-04-10T07:21:02.105Z,99.90
2019-04-10T07:23:33.811Z,99.90
2019-04-10T07:26:04.338Z,99.90
2019-04-10T07:28:36.635Z,99.90
2019-04-10T07:31:08.931Z,99.90
2019-04-10T07:33:40.471Z,99.90
2019-04-10T07:36:13.938Z,99.90
2019-04-10T07:38:43.808Z,99.90
2019-04-10T07:41:21.045Z,99.90
2019-04-10T07:43:47.344Z,99.90
2019-04-10T07:46:18.967Z,99.90
2019-04-10T07:48:50.247Z,99.90
2019-04-10T07:51:21.115Z,99.90
2019-04-10T07:53:51.801Z,99.90
2019-04-10T07:56:22.468Z,99.90
2019-04-10T07:58:53.809Z,99.90
2019-04-10T08:01:24.616Z,99.90
2019-04-10T08:03:55.620Z,99.90
2019-04-10T08:06:26.058Z,99.90
2019-04-10T08:08:56.406Z,99.90
2019-04-10T08:11:26.718Z,99.90
2019-04-10T08:13:57.563Z,99.90
2019-04-10T08:16:28.201Z,99.90
2019-04-10T08:18:59.678Z,99.90
2019-04-10T08:21:30.213Z,99.90
2019-04-10T08:24:00.579Z,99.90
2019-04-10T08:26:30.929Z,99.90
2019-04-10T08:29:01.634Z,99.90
2019-04-10T08:31:32.877Z,99.90
2019-04-10T08:34:03.607Z,99.90
2019-04-10T08:36:33.934Z,99.90
2019-04-10T08:39:06.802Z,99.90
2019-04-10T08:41:37.327Z,99.90
2019-04-10T08:44:07.712Z,99.90
2019-04-10T08:46:38.049Z,99.90
2019-04-10T08:49:08.376Z,99.90
2019-04-10T08:51:39.435Z,99.60
2019-04-10T08:54:10.047Z,99.70
2019-04-10T08:56:40.782Z,99.90
2019-04-10T08:59:11.770Z,99.90
2019-04-10T09:01:42.319Z,97.90
2019-04-10T09:04:12.680Z,97.40
2019-04-10T09:06:43.960Z,97.60
2019-04-10T09:09:15.300Z,96.90
2019-04-10T09:11:46.168Z,97.40
2019-04-10T09:14:17.046Z,95.50
2019-04-10T09:16:47.553Z,94.40
2019-04-10T09:19:18.953Z,94.80
2019-04-10T09:21:52.042Z,94.00
2019-04-10T09:24:27.979Z,94.90
2019-04-10T09:27:02.533Z,93.70
2019-04-10T09:29:41.019Z,95.60
2019-04-10T09:32:22.309Z,95.60
2019-04-10T09:35:06.642Z,96.00
2019-04-10T09:37:44.157Z,95.80
2019-04-10T09:40:18.817Z,95.30
2019-04-10T09:42:57.651Z,93.10
2019-04-10T09:45:49.844Z,94.00
2019-04-10T09:48:28.482Z,95.00
2019-04-10T09:51:05.811Z,93.50
2019-04-10T09:53:43.493Z,92.90
2019-04-10T09:56:17.284Z,94.40
2019-04-10T09:58:53.230Z,94.90
2019-04-10T10:01:33.812Z,94.30
2019-04-10T10:04:11.547Z,91.40
2019-04-10T10:06:43.242Z,90.70
2019-04-10T10:09:14.827Z,90.60
2019-04-10T10:11:45.627Z,90.80
2019-04-10T10:14:18.833Z,90.00
2019-04-10T10:16:50.532Z,87.30
2019-04-10T10:19:21.845Z,89.20
2019-04-10T10:21:52.595Z,88.20
2019-04-10T10:24:23.086Z,86.50
2019-04-10T10:26:53.619Z,87.50
2019-04-10T10:29:24.084Z,84.00
2019-04-10T10:31:55.085Z,80.30
2019-04-10T10:34:26.105Z,78.30
2019-04-10T10:36:56.515Z,76.70
2019-04-10T10:39:26.963Z,77.40
2019-04-10T10:41:58.515Z,78.00
2019-04-10T10:44:30.114Z,77.50
2019-04-10T10:47:00.585Z,78.60
2019-04-10T10:49:30.939Z,75.20
2019-04-10T10:52:01.473Z,75.80
2019-04-10T10:54:32.648Z,75.80
2019-04-10T10:57:03.106Z,74.70
2019-04-10T10:59:33.600Z,74.50
2019-04-10T11:02:04.455Z,74.00
2019-04-10T11:04:35.665Z,76.10
2019-04-10T11:07:06.906Z,74.50
2019-04-10T11:09:37.593Z,72.00
2019-04-10T11:12:07.935Z,69.50
2019-04-10T11:14:39.512Z,67.60
2019-04-10T11:17:11.574Z,69.30
2019-04-10T11:19:43.427Z,66.90
2019-04-10T11:22:18.354Z,67.90
2019-04-10T11:24:47.134Z,66.90
2019-04-10T11:27:18.045Z,67.40
2019-04-10T11:29:48.677Z,66.40
2019-04-10T11:32:19.965Z,62.50
2019-04-10T11:34:50.879Z,64.00
2019-04-10T11:37:30.810Z,63.30
2019-04-10T11:39:54.540Z,60.80
2019-04-10T11:42:26.517Z,58.90
2019-04-10T11:44:56.984Z,58.10
2019-04-10T11:47:29.017Z,58.20
2019-04-10T11:50:01.636Z,58.60
2019-04-10T11:52:38.621Z,57.30
2019-04-10T11:55:10.236Z,56.80
2019-04-10T11:57:37.306Z,56.40
2019-04-10T12:00:12.093Z,55.90
2019-04-10T12:02:45.009Z,57.30
2019-04-10T12:05:18.531Z,56.40
2019-04-10T12:12:49.947Z,54.40
2019-04-10T12:15:21.376Z,55.30
2019-04-10T12:17:52.054Z,56.30
2019-04-10T12:20:22.632Z,55.50
2019-04-10T12:22:53.263Z,57.20
2019-04-10T12:25:24.773Z,55.70
2019-04-10T12:27:55.971Z,55.50
2019-04-10T12:30:26.988Z,56.30
2019-04-10T12:32:57.564Z,56.50
2019-04-10T12:35:27.940Z,55.40
2019-04-10T12:38:02.840Z,54.00
2019-04-10T12:40:30.770Z,54.60
2019-04-10T12:43:01.369Z,53.60
2019-04-10T12:45:32.632Z,54.20
2019-04-10T12:48:04.055Z,53.70
2019-04-10T12:50:34.989Z,52.60
2019-04-10T12:53:05.538Z,51.90
2019-04-10T12:55:36.694Z,52.30
2019-04-10T12:58:12.948Z,51.40
2019-04-10T13:00:41.061Z,51.00
2019-04-10T13:03:11.389Z,52.50
2019-04-10T13:05:41.747Z,51.90
2019-04-10T13:08:21.307Z,51.50
2019-04-10T13:10:45.584Z,53.90
2019-04-10T13:13:16.316Z,55.70
2019-04-10T13:15:47.670Z,57.80
2019-04-10T13:18:18.527Z,55.00
2019-04-10T13:20:48.899Z,52.20
2019-04-10T13:23:20.369Z,54.00
2019-04-10T13:25:59.693Z,56.60
2019-04-10T13:28:23.415Z,56.00
2019-04-10T13:30:55.550Z,57.20
2019-04-10T13:33:26.707Z,56.90
2019-04-10T13:35:57.646Z,58.50
2019-04-10T13:38:32.712Z,57.00
2019-04-10T13:41:00.096Z,58.40
2019-04-10T13:43:30.429Z,58.50
2019-04-10T13:46:00.785Z,58.80
2019-04-10T13:48:31.438Z,59.20
2019-04-10T13:51:03.259Z,58.70
2019-04-10T13:53:34.329Z,59.70
2019-04-10T13:56:06.594Z,60.80
2019-04-10T13:58:36.949Z,60.50
2019-04-10T14:01:09.748Z,58.90
2019-04-10T14:03:41.594Z,60.30
2019-04-10T14:06:12.227Z,60.80
2019-04-10T14:09:04.477Z,60.00
2019-04-10T14:11:15.240Z,60.80
2019-04-10T14:13:46.249Z,58.70
2019-04-10T14:16:16.969Z,57.70
2019-04-10T14:18:48.769Z,58.50
2019-04-10T14:21:20.660Z,59.40
2019-04-10T14:23:51.471Z,61.10
2019-04-10T14:26:46.776Z,61.30
2019-04-10T14:29:20.532Z,63.60
2019-04-10T14:31:56.991Z,66.00
2019-04-10T14:34:28.279Z,66.00
2019-04-10T14:36:59.019Z,65.40
2019-04-10T14:39:29.357Z,66.90
2019-04-10T14:42:00.146Z,68.40
2019-04-10T14:44:30.700Z,70.20
2019-04-10T14:47:02.199Z,69.60
2019-04-10T14:49:33.416Z,69.00
2019-04-10T14:52:05.100Z,67.90
2019-04-10T14:54:35.709Z,67.50
2019-04-10T14:57:06.585Z,67.40
2019-04-10T14:59:37.053Z,66.80
2019-04-10T15:02:10.689Z,68.50
2019-04-10T15:04:41.495Z,67.90
2019-04-10T15:07:12.331Z,67.50
2019-04-10T15:09:42.812Z,67.60
2019-04-10T15:12:14.300Z,68.00
2019-04-10T15:14:45.783Z,66.20
2019-04-10T15:17:17.030Z,65.10
2019-04-10T15:19:49.792Z,63.70
2019-04-10T15:22:20.029Z,63.80
2019-04-10T15:24:50.443Z,63.80
2019-04-10T15:27:21.554Z,63.00
2019-04-10T15:29:52.597Z,61.10
2019-04-10T15:32:23.204Z,62.20
2019-04-10T15:34:53.695Z,60.50
2019-04-10T15:37:24.933Z,58.70
2019-04-10T15:39:56.064Z,60.60
2019-04-10T15:42:26.392Z,60.60
2019-04-10T15:44:56.806Z,62.30
2019-04-10T15:47:27.261Z,60.00
2019-04-10T15:49:57.786Z,60.30
2019-04-10T15:52:29.139Z,59.20
2019-04-10T15:54:59.740Z,58.40
2019-04-10T15:57:42.600Z,58.10
2019-04-10T16:00:03.191Z,59.70
2019-04-10T16:02:33.956Z,59.00
2019-04-10T16:05:04.859Z,59.40
2019-04-10T16:07:36.283Z,61.30
2019-04-10T16:10:39.320Z,60.70
2019-04-10T16:13:25.170Z,62.20
2019-04-10T16:15:56.800Z,64.00
2019-04-10T16:18:28.326Z,62.60
2019-04-10T16:20:59.988Z,63.80
2019-04-10T16:23:44.372Z,63.90
2019-04-10T16:26:14.736Z,66.00
2019-04-10T16:28:45.247Z,65.40
2019-04-10T16:31:15.700Z,67.30
2019-04-10T16:33:46.032Z,67.00
2019-04-10T16:36:17.145Z,67.20
2019-04-10T16:38:47.685Z,67.20
2019-04-10T16:41:17.987Z,69.20
2019-04-10T16:43:48.666Z,68.60
2019-04-10T16:46:20.269Z,69.00
2019-04-10T16:48:50.984Z,69.00
2019-04-10T16:51:21.329Z,68.20
2019-04-10T16:53:51.840Z,69.50
2019-04-10T16:56:23.091Z,72.60
2019-04-10T16:58:53.763Z,69.60
2019-04-10T17:01:24.108Z,69.40
2019-04-10T17:03:54.561Z,70.30
2019-04-10T17:06:26.168Z,70.50
2019-04-10T17:08:58.549Z,71.80
2019-04-10T17:11:31.979Z,70.20
2019-04-10T17:14:07.930Z,71.60
2019-04-10T17:16:39.974Z,72.70
2019-04-10T17:19:11.771Z,71.20
2019-04-10T17:21:42.616Z,71.20
2019-04-10T17:24:13.402Z,71.90
2019-04-10T17:26:44.057Z,71.30
2019-04-10T17:29:16.639Z,70.70
2019-04-10T17:31:47.341Z,72.00
2019-04-10T17:34:18.718Z,72.20
2019-04-10T17:36:49.525Z,73.00
2019-04-10T17:39:19.919Z,73.70
2019-04-10T17:41:50.342Z,73.80
2019-04-10T17:44:21.307Z,73.50
2019-04-10T17:46:51.987Z,73.20
2019-04-10T17:49:23.415Z,73.60
2019-04-10T17:51:54.636Z,74.10
2019-04-10T17:54:25.179Z,74.20
2019-04-10T17:56:56.813Z,73.50
2019-04-10T17:59:27.260Z,73.50
2019-04-10T18:02:01.252Z,74.20
2019-04-10T18:04:31.949Z,74.20
2019-04-10T18:07:03.786Z,75.00
2019-04-10T18:09:34.771Z,75.70
2019-04-10T18:12:06.026Z,76.00
2019-04-10T18:14:39.159Z,76.00
2019-04-10T18:17:09.083Z,75.80
2019-04-10T18:19:39.498Z,75.80
2019-04-10T18:22:10.119Z,76.20
2019-04-10T18:24:40.607Z,76.10
2019-04-10T18:27:12.137Z,76.80
2019-04-10T18:29:43.471Z,77.40
2019-04-10T18:32:13.862Z,77.20
2019-04-10T18:34:44.586Z,78.50
2019-04-10T18:37:18.713Z,78.50
2019-04-10T18:39:48.541Z,78.70
2019-04-10T18:42:22.898Z,78.90
2019-04-10T18:44:53.275Z,79.20
2019-04-10T18:47:24.909Z,79.10
2019-04-10T18:49:55.962Z,79.90
2019-04-10T18:52:27.443Z,80.40
2019-04-10T18:54:58.497Z,80.10
2019-04-10T18:57:30.493Z,80.90
2019-04-10T19:00:21.828Z,80.50
2019-04-10T19:03:03.417Z,81.00
2019-04-10T19:05:38.259Z,81.20
2019-04-10T19:08:11.143Z,82.10
2019-04-10T19:10:41.013Z,82.50
2019-04-10T19:13:11.619Z,83.10
2019-04-10T19:15:42.058Z,83.80
2019-04-10T19:18:13.261Z,84.20
2019-04-10T19:20:43.865Z,84.40
2019-04-10T19:23:15.354Z,84.70
2019-04-10T19:25:45.780Z,85.10
2019-04-10T19:28:27.990Z,85.70
2019-04-10T19:30:55.206Z,87.20
2019-04-10T19:33:27.014Z,87.20
2019-04-10T19:35:57.327Z,88.00
2019-04-10T19:38:27.702Z,89.80
2019-04-10T19:40:58.464Z,88.30
2019-04-10T19:43:30.513Z,89.50
2019-04-10T19:46:01.420Z,89.10
2019-04-10T19:48:33.024Z,90.20
2019-04-10T19:51:03.692Z,90.20
2019-04-10T19:53:34.013Z,90.50
2019-04-10T19:56:04.480Z,90.90
2019-04-10T19:58:35.119Z,91.00
2019-04-10T20:01:06.925Z,91.20
2019-04-10T20:03:37.522Z,91.70
2019-04-10T20:06:08.267Z,91.40
2019-04-10T20:08:39.709Z,91.40
2019-04-10T20:11:10.868Z,91.40
2019-04-10T20:13:41.194Z,91.50
2019-04-10T20:16:11.518Z,91.60
2019-04-10T20:18:41.873Z,92.50
2019-04-10T20:21:12.197Z,92.90
2019-04-10T20:23:43.832Z,93.10
2019-04-10T20:26:14.768Z,93.10
2019-04-10T20:28:45.152Z,93.50
2019-04-10T20:31:29.017Z,93.90
2019-04-10T20:33:59.351Z,94.80
2019-04-10T20:36:29.651Z,95.80
2019-04-10T20:39:00.979Z,97.20
2019-04-10T20:41:43.415Z,97.50
2019-04-10T20:44:03.819Z,97.60
2019-04-10T20:46:34.213Z,98.20
2019-04-10T20:49:04.824Z,98.60
2019-04-10T20:51:35.586Z,98.50
2019-04-10T20:54:06.554Z,98.70
2019-04-10T20:56:36.967Z,98.80
2019-04-10T20:59:07.735Z,98.90
2019-04-10T21:01:39.273Z,99.20
2019-04-10T21:04:09.962Z,99.30
2019-04-10T21:06:42.015Z,99.30
2019-04-10T21:09:12.501Z,99.00
2019-04-10T21:11:42.888Z,98.80
2019-04-10T21:14:13.709Z,98.70
2019-04-10T21:16:44.400Z,98.70
2019-04-10T21:19:14.716Z,98.60
2019-04-10T21:21:45.033Z,98.30
2019-04-10T21:24:15.375Z,97.80
2019-04-10T21:26:46.439Z,97.90
2019-04-10T21:29:36.342Z,97.60
2019-04-10T21:32:30.326Z,97.40
2019-04-10T21:35:02.073Z,97.50
2019-04-10T21:37:32.702Z,97.60
2019-04-10T21:40:03.052Z,98.20
2019-04-10T21:42:33.638Z,98.10
2019-04-10T21:45:05.192Z,97.80
2019-04-10T21:47:35.743Z,97.50
2019-04-10T21:50:06.730Z,97.40
2019-04-10T21:52:37.124Z,97.50
2019-04-10T21:55:07.686Z,97.20
2019-04-10T21:57:38.471Z,97.50
2019-04-10T22:00:10.065Z,97.60
2019-04-10T22:02:40.485Z,97.90
2019-04-10T22:05:12.356Z,97.80
2019-04-10T22:08:03.696Z,97.70
2019-04-10T22:10:41.916Z,97.80
2019-04-10T22:13:13.520Z,97.90
2019-04-10T22:15:49.091Z,97.80
2019-04-10T22:18:21.091Z,97.70
2019-04-10T22:20:52.094Z,97.90
2019-04-10T22:23:22.499Z,98.10
2019-04-10T22:25:52.830Z,98.00
2019-04-10T22:28:23.308Z,98.10
2019-04-10T22:30:54.707Z,98.40
2019-04-10T22:33:25.299Z,98.30
2019-04-10T22:35:56.018Z,98.10
2019-04-10T22:38:27.243Z,97.90
2019-04-10T22:40:58.156Z,97.80
2019-04-10T22:43:28.533Z,97.70
2019-04-10T22:45:58.860Z,97.40
2019-04-10T22:48:29.160Z,97.90
2019-04-10T22:50:59.475Z,96.80
2019-04-10T22:53:31.010Z,97.00
2019-04-10T22:56:01.530Z,96.90
2019-04-10T22:58:32.942Z,97.30
2019-04-10T23:01:04.662Z,96.80
2019-04-10T23:03:35.101Z,97.00
2019-04-10T23:06:05.433Z,97.10
2019-04-10T23:08:35.887Z,96.80
2019-04-10T23:11:07.715Z,97.00
2019-04-10T23:13:38.287Z,97.30
2019-04-10T23:16:09.800Z,97.80
2019-04-10T23:18:41.356Z,97.50
2019-04-10T23:21:12.347Z,97.30
2019-04-10T23:23:43.312Z,97.50
2019-04-10T23:26:14.864Z,97.20
2019-04-10T23:28:45.692Z,97.50
2019-04-10T23:31:17.272Z,96.90
2019-04-10T23:33:48.333Z,97.20
2019-04-10T23:36:20.147Z,97.40
2019-04-10T23:38:52.048Z,97.70
2019-04-10T23:41:23.349Z,97.90
2019-04-10T23:43:55.711Z,98.20
2019-04-10T23:46:26.454Z,98.10
2019-04-10T23:48:57.296Z,99.00
2019-04-10T23:51:29.386Z,98.30
2019-04-10T23:54:00.643Z,98.70
2019-04-10T23:56:31.566Z,98.70
2019-04-10T23:59:02.447Z,98.90
